Time;durP1;ratioP1;P1;durP2;ratioP2;P2;SDS_P1;SDS_P2;PMS_P1;PMS_P2;Temp;Humidity;BMP_temperature;BMP_pressure;BME280_temperature;BME280_humidity;BME280_pressure;Samples;Min_cycle;Max_cycle;Signal;HPM_P1;HPM_P2
2020/12/24 09:09:44;;;;;;;21.07;9.17;;;;;;;7.89;79.24;98166.00;120282;1113;104457;-75
2020/12/24 09:12:12;;;;;;;20.27;8.77;;;;;;;7.94;79.65;98156.87;120185;1151;104348;-75
2020/12/24 09:14:39;;;;;;;20.47;9.00;;;;;;;7.98;79.69;98160.97;120181;1150;104476;-75
2020/12/24 09:17:07;;;;;;;18.97;8.80;;;;;;;8.00;79.48;98143.16;120119;1151;104444;-74
2020/12/24 09:19:37;;;;;;;21.43;9.87;;;;;;;8.02;79.81;98143.89;120048;1151;104542;-73
2020/12/24 09:22:12;;;;;;;20.43;9.63;;;;;;;8.02;79.37;98142.06;120187;1151;104941;-74
2020/12/24 09:24:48;;;;;;;19.70;9.00;;;;;;;8.04;79.63;98144.61;120091;1151;104320;-73
2020/12/24 09:27:15;;;;;;;20.23;9.27;;;;;;;8.02;79.47;98125.34;120056;1151;104946;-74
2020/12/24 09:29:42;;;;;;;19.53;9.70;;;;;;;8.03;79.60;98130.52;120064;1151;104461;-75
2020/12/24 09:32:13;;;;;;;20.73;9.27;;;;;;;8.02;79.45;98125.34;120181;1150;104371;-72
2020/12/24 09:34:42;;;;;;;21.12;9.73;;;;;;;8.02;79.68;98120.88;120145;1150;104796;-73
2020/12/24 09:37:09;;;;;;;21.50;9.60;;;;;;;8.01;79.63;98121.84;120134;1151;104361;-75
2020/12/24 09:39:36;;;;;;;22.20;10.23;;;;;;;8.00;79.20;98116.67;120135;1151;104423;-73
2020/12/24 09:42:04;;;;;;;20.32;9.28;;;;;;;8.00;79.41;98119.33;120085;1150;104394;-75
2020/12/24 09:44:36;;;;;;;22.00;9.55;;;;;;;7.99;79.15;98121.12;120161;1151;104480;-74
2020/12/24 09:47:03;;;;;;;19.80;9.48;;;;;;;8.00;79.42;98124.63;120002;1150;104492;-74
2020/12/24 09:49:30;;;;;;;21.60;10.50;;;;;;;8.00;79.22;98127.27;120038;1150;104440;-73
2020/12/24 09:51:57;;;;;;;22.17;10.77;;;;;;;7.98;79.29;98123.90;119999;1150;104451;-73
2020/12/24 09:54:32;;;;;;;22.00;9.93;;;;;;;7.97;79.26;98127.51;120104;1150;104355;-72
2020/12/24 09:56:59;;;;;;;21.97;10.70;;;;;;;7.97;79.54;98120.39;120137;1151;104764;-72
2020/12/24 09:59:26;;;;;;;22.63;11.07;;;;;;;8.04;79.48;98118.95;120085;1150;104505;-70
2020/12/24 10:01:54;;;;;;;22.02;10.75;;;;;;;8.11;79.58;98114.05;120084;1149;104451;-73
2020/12/24 10:04:23;;;;;;;22.87;10.43;;;;;;;8.11;79.30;98129.08;120209;1150;104842;-70
2020/12/24 10:06:50;;;;;;;23.35;10.90;;;;;;;8.11;79.14;98116.70;120111;1150;104382;-72
2020/12/24 10:09:17;;;;;;;25.77;12.80;;;;;;;8.15;79.52;98125.23;120120;1150;104404;-72
2020/12/24 10:11:48;;;;;;;25.03;12.77;;;;;;;8.19;79.40;98122.21;120212;1150;104590;-72
2020/12/24 10:14:15;;;;;;;23.30;11.30;;;;;;;8.18;79.24;98112.58;120133;1150;104477;-71
2020/12/24 10:16:44;;;;;;;22.50;10.60;;;;;;;8.22;79.49;98110.55;120107;1151;104447;-72
2020/12/24 10:19:11;;;;;;;23.30;11.20;;;;;;;8.20;79.65;98107.18;120158;1150;104822;-72
2020/12/24 10:21:41;;;;;;;21.97;10.70;;;;;;;8.18;79.72;98112.58;120162;1151;104475;-71
2020/12/24 10:24:16;;;;;;;24.27;11.83;;;;;;;8.20;79.44;98110.66;120150;1150;104410;-74
2020/12/24 10:26:43;;;;;;;23.40;11.13;;;;;;;8.21;79.47;98100.92;120059;1150;104342;-73
2020/12/24 10:29:10;;;;;;;23.47;12.10;;;;;;;8.23;79.88;98104.30;120134;1150;104343;-76
2020/12/24 10:31:45;;;;;;;23.63;11.70;;;;;;;8.23;79.36;98098.13;120140;1150;104458;-73
2020/12/24 10:34:12;;;;;;;23.93;11.50;;;;;;;8.23;79.61;98091.05;120138;1150;104484;-73
2020/12/24 10:36:39;;;;;;;23.13;11.87;;;;;;;8.26;79.41;98082.00;120136;1150;104522;-74
2020/12/24 10:39:09;;;;;;;23.10;11.27;;;;;;;8.26;79.38;98087.30;120022;1150;104350;-74
2020/12/24 10:41:38;;;;;;;24.30;11.60;;;;;;;8.22;79.32;98084.06;120021;1150;104462;-73
2020/12/24 10:44:06;;;;;;;24.43;11.50;;;;;;;8.23;79.08;98083.09;120032;1150;104519;-73
2020/12/24 10:46:34;;;;;;;22.53;11.30;;;;;;;8.21;79.45;98079.72;120149;1150;104343;-72
2020/12/24 10:49:02;;;;;;;19.90;9.57;;;;;;;8.22;79.05;98077.91;120131;1151;104478;-73
2020/12/24 10:51:29;;;;;;;23.87;11.57;;;;;;;8.14;79.01;98067.92;120090;1150;104382;-74
2020/12/24 10:53:56;;;;;;;21.62;10.43;;;;;;;8.08;79.32;98066.61;120158;1151;104446;-75
2020/12/24 10:56:23;;;;;;;25.93;11.87;;;;;;;8.07;79.30;98064.92;120116;1151;104446;-71
2020/12/24 10:58:50;;;;;;;24.72;10.98;;;;;;;8.10;79.71;98064.69;120120;1150;104380;-72
2020/12/24 11:01:18;;;;;;;20.50;9.20;;;;;;;8.12;79.35;98053.95;120105;1151;104346;-74
2020/12/24 11:03:47;;;;;;;21.13;10.00;;;;;;;8.13;79.40;98061.80;119977;1151;104549;-74
2020/12/24 11:06:23;;;;;;;22.40;11.50;;;;;;;8.12;79.44;98056.60;120166;1150;104423;-75
2020/12/24 11:08:52;;;;;;;24.93;11.10;;;;;;;8.18;79.52;98056.13;120138;1150;104447;-77
2020/12/24 11:11:20;;;;;;;24.37;10.77;;;;;;;8.26;79.92;98050.20;119966;1150;104438;-71
2020/12/24 11:13:47;;;;;;;21.07;9.53;;;;;;;8.33;79.37;98057.56;120211;1149;104579;-74
2020/12/24 11:16:22;;;;;;;23.03;9.47;;;;;;;8.27;79.29;98057.19;120124;1150;104381;-73
2020/12/24 11:18:50;;;;;;;19.53;8.43;;;;;;;8.19;78.87;98058.64;120173;1150;104519;-70
2020/12/24 11:21:19;;;;;;;22.77;10.47;;;;;;;8.10;78.99;98051.44;120273;1149;104455;-74
2020/12/24 11:23:49;;;;;;;22.07;10.50;;;;;;;8.18;79.65;98056.13;120168;1150;104367;-72
2020/12/24 11:26:24;;;;;;;21.37;10.20;;;;;;;8.24;79.49;98046.83;120150;1150;104483;-77
2020/12/24 11:28:52;;;;;;;20.33;9.27;;;;;;;8.31;79.22;98053.34;120122;1150;104349;-73
2020/12/24 11:31:27;;;;;;;20.00;9.03;;;;;;;8.33;79.20;98046.11;120152;1150;104445;-72
2020/12/24 11:33:56;;;;;;;21.57;10.07;;;;;;;8.35;79.66;98042.36;119989;1151;104494;-75
2020/12/24 11:36:24;;;;;;;19.70;8.73;;;;;;;8.35;78.91;98036.23;120173;1151;104445;-74
2020/12/24 11:38:53;;;;;;;19.20;8.67;;;;;;;8.32;79.22;98033.83;120183;1150;104425;-75
2020/12/24 11:41:23;;;;;;;17.47;7.93;;;;;;;8.31;79.14;98025.05;120093;1151;104387;-77
2020/12/24 11:43:53;;;;;;;18.80;7.85;;;;;;;8.31;78.97;98024.19;120138;1150;104344;-76
2020/12/24 11:46:23;;;;;;;15.73;6.73;;;;;;;8.24;79.09;98025.64;120170;1150;104385;-76
2020/12/24 11:48:52;;;;;;;18.77;7.50;;;;;;;8.17;79.38;98012.88;120191;1150;105023;-74
